Nye, MT

5:28 AM MDT on October 20, 2014 (GMT -0600)
Gallatin | Change Station
CLOSE
Current Station
Airport
Location: Bozeman,
Elevation: 4475 ft
Nearby Weather Stations

Elev 4475 ft 45.79 °N, 111.16 °W | Updated 32 minutes ago

Clear
Clear
30 °F
Feels Like 30 °F
N
0
Wind Variable Wind from North

Today
High -- | Low -- °F
--% Chance of Precip.
Yesterday
High -- | Low -- °F
Precip. -- in
7:42 AM 6:25 PM
Waning Crescent, 11% visible
Pressure 29.98 in
Visibility 10.0 miles
Clouds Clear
Dew Point 26 °F
Humidity 85%
Rainfall 0.00 in
Snow Depth 0 in
UV 0 out of 12
Pollen 2.70 out of 12
Air Quality Not available.
Flu Activity No Activity
METAR KBZN 201056Z AUTO 00000KT 10SM CLR M01/M03 A3000 RMK AO2 SLP152 T10111033

More Conditions Fewer Conditions

Pressure 29.98 in
Visibility 10.0 miles
Clouds Clear
Dew Point 26 °F
Humidity 85%
Rainfall 0.00 in
Snow Depth 0 in
UV 0 out of 12
Pollen 2.70 out of 12
Air Quality Not available.
Flu Activity No Activity
METAR KBZN 201056Z AUTO 00000KT 10SM CLR M01/M03 A3000 RMK AO2 SLP152 T10111033

More Conditions Fewer Conditions

10-Day Weather Forecast

Almanac

Astronomy

Oct. 20, 2014 Rise Set
Actual Time 7:42 AM MDT 6:25 PM MDT
Civil Twilight 7:12 AM MDT 6:55 PM MDT
Nautical Twilight 6:37 AM MDT 7:29 PM MDT
Astronomical Twilight 6:03 AM MDT 8:03 PM MDT
Moon 4:24 AM MDT 4:57 PM MDT
Length of Visible Light 11h 42m
Length of Day
10h 42m
Waning Crescent, 11% of the Moon is Illuminated
Today
Waning Crescent
Oct 23
New
Oct 30
First Quarter
Nov 6
Full
Nov 14
Last Quarter

Today's Extremes

State Highs State Lows

Community

WunderPhotos

Upload Photos

1,763,338 photos uploaded!

Nearby

Snow Depth

Station Depth Elevation
Placer Basin 0 in 8830 ft
Burnt Mountain 0 in 5880 ft
Monument Peak 0 in 8850 ft
Fisher Creek 1 in 9100 ft
Northeast Entrance 0 in 7350 ft

Earthquake Activity

City Distance Mag. Time & Date
No recent earthquake activity has been reported nearby.
Minimum magnitude displayed is 2.5.

Coastal Water Temperatures

Place Temperature
No Stations Reporting

Nearby Weather Stations